Time,TemperatureF,DewpointF,PressureIn,WindDirection,WindDirectionDegrees,WindSpeedMPH,WindSpeedGustMPH,Humidity,HourlyPrecipIn,Conditions,Clouds,dailyrainin,SoftwareType,DateUTC
2013-02-15 00:00:00,42.2,37.7,30.01,West,262,1.0,2.0,84,0.00,,---,0.00,VWS V13.01,2013-02-15 06:00:00,
2013-02-15 00:01:00,42.2,37.7,30.01,West,261,1.0,2.0,84,0.00,,---,0.00,VWS V13.01,2013-02-15 06:01:00,
2013-02-15 00:06:00,42.2,38.0,30.01,West,262,0.0,3.0,85,0.00,,---,0.00,VWS V13.01,2013-02-15 06:06:00,
2013-02-15 00:11:00,42.3,38.1,30.01,West,263,0.0,3.0,85,0.00,,---,0.00,VWS V13.01,2013-02-15 06:11:00,
2013-02-15 00:16:00,42.3,37.8,30.01,West,261,0.0,3.0,84,0.00,,---,0.00,VWS V13.01,2013-02-15 06:16:00,
2013-02-15 00:21:00,42.1,37.6,30.01,West,263,0.0,3.0,84,0.00,,---,0.00,VWS V13.01,2013-02-15 06:21:00,
2013-02-15 00:26:00,42.0,37.5,30.02,West,262,0.0,3.0,84,0.00,,---,0.00,VWS V13.01,2013-02-15 06:26:00,
2013-02-15 00:30:00,41.8,37.6,30.02,West,261,0.0,3.0,85,0.00,,---,0.00,VWS V13.01,2013-02-15 06:30:00,
2013-02-15 00:31:00,41.8,37.6,30.02,West,262,0.0,0.0,85,0.00,,---,0.00,VWS V13.01,2013-02-15 06:31:00,
2013-02-15 00:36:00,41.5,37.0,30.02,West,262,1.0,2.0,84,0.00,,---,0.00,VWS V13.01,2013-02-15 06:36:00,
2013-02-15 00:41:00,41.2,37.0,30.02,West,261,2.0,3.0,85,0.00,,---,0.00,VWS V13.01,2013-02-15 06:41:00,
2013-02-15 00:46:00,41.1,36.9,30.02,West,262,0.0,3.0,85,0.00,,---,0.00,VWS V13.01,2013-02-15 06:46:00,
2013-02-15 00:51:00,41.2,37.0,30.02,West,262,2.0,3.0,85,0.00,,---,0.00,VWS V13.01,2013-02-15 06:51:00,
2013-02-15 00:56:00,41.1,36.6,30.02,West,261,1.0,3.0,84,0.00,,---,0.00,VWS V13.01,2013-02-15 06:56:00,
2013-02-15 01:00:00,41.0,36.8,30.02,West,262,2.0,3.0,85,0.00,,---,0.00,VWS V13.01,2013-02-15 07:00:00,
2013-02-15 01:01:00,41.0,36.8,30.02,West,262,2.0,2.0,85,0.00,,---,0.00,VWS V13.01,2013-02-15 07:01:00,
2013-02-15 01:06:00,41.0,36.8,30.03,West,262,3.0,3.0,85,0.00,,---,0.00,VWS V13.01,2013-02-15 07:06:00,
2013-02-15 01:11:00,41.0,36.8,30.03,West,262,2.0,3.0,85,0.00,,---,0.00,VWS V13.01,2013-02-15 07:11:00,
2013-02-15 01:16:00,41.0,36.8,30.03,West,261,2.0,3.0,85,0.00,,---,0.00,VWS V13.01,2013-02-15 07:16:00,
2013-02-15 01:21:00,41.1,36.9,30.04,West,261,2.0,3.0,85,0.00,,---,0.00,VWS V13.01,2013-02-15 07:21:00,
2013-02-15 01:26:00,41.2,36.7,30.04,West,261,3.0,4.0,84,0.00,,---,0.00,VWS V13.01,2013-02-15 07:26:00,
2013-02-15 01:30:00,41.3,36.8,30.04,West,262,3.0,4.0,84,0.00,,---,0.00,VWS V13.01,2013-02-15 07:30:00,
2013-02-15 01:31:00,41.3,36.8,30.04,West,262,3.0,4.0,84,0.00,,---,0.00,VWS V13.01,2013-02-15 07:31:00,
2013-02-15 01:36:00,41.6,37.1,30.03,West,263,5.0,7.0,84,0.00,,---,0.00,VWS V13.01,2013-02-15 07:36:00,
2013-02-15 01:41:00,41.9,37.1,30.04,West,263,2.0,7.0,83,0.00,,---,0.00,VWS V13.01,2013-02-15 07:41:00,
2013-02-15 01:46:00,41.9,36.8,30.04,West,263,3.0,7.0,82,0.00,,---,0.00,VWS V13.01,2013-02-15 07:46:00,
2013-02-15 01:51:00,41.7,36.6,30.04,West,263,1.0,7.0,82,0.00,,---,0.00,VWS V13.01,2013-02-15 07:51:00,
2013-02-15 01:56:00,41.4,36.3,30.04,West,263,0.0,7.0,82,0.00,,---,0.00,VWS V13.01,2013-02-15 07:56:00,
2013-02-15 02:00:00,41.2,36.1,30.04,West,263,1.0,7.0,82,0.00,,---,0.00,VWS V13.01,2013-02-15 08:00:00,
2013-02-15 02:01:00,41.2,36.1,30.04,West,263,1.0,7.0,82,0.00,,---,0.00,VWS V13.01,2013-02-15 08:01:00,
2013-02-15 02:06:00,41.0,35.9,30.05,West,263,0.0,3.0,82,0.00,,---,0.00,VWS V13.01,2013-02-15 08:06:00,
2013-02-15 02:11:00,40.7,35.6,30.04,West,263,0.0,3.0,82,0.00,,---,0.00,VWS V13.01,2013-02-15 08:11:00,
2013-02-15 02:16:00,40.6,35.8,30.04,West,263,0.0,3.0,83,0.00,,---,0.00,VWS V13.01,2013-02-15 08:16:00,
2013-02-15 02:21:00,40.6,35.5,30.04,West,263,0.0,3.0,82,0.00,,---,0.00,VWS V13.01,2013-02-15 08:21:00,
2013-02-15 02:26:00,40.5,35.5,30.04,West,263,0.0,3.0,82,0.00,,---,0.00,VWS V13.01,2013-02-15 08:26:00,
2013-02-15 02:30:00,40.4,35.3,30.05,West,263,0.0,3.0,82,0.00,,---,0.00,VWS V13.01,2013-02-15 08:30:00,
2013-02-15 02:31:00,40.4,35.3,30.05,West,263,0.0,3.0,82,0.00,,---,0.00,VWS V13.01,2013-02-15 08:31:00,
2013-02-15 02:36:00,40.0,34.7,30.05,West,263,0.0,0.0,81,0.00,,---,0.00,VWS V13.01,2013-02-15 08:36:00,
2013-02-15 02:41:00,39.3,34.3,30.05,West,263,0.0,0.0,82,0.00,,---,0.00,VWS V13.01,2013-02-15 08:41:00,
2013-02-15 02:46:00,38.7,34.3,30.05,West,263,0.0,0.0,84,0.00,,---,0.00,VWS V13.01,2013-02-15 08:46:00,
2013-02-15 02:51:00,38.4,34.3,30.06,West,263,0.0,0.0,85,0.00,,---,0.00,VWS V13.01,2013-02-15 08:51:00,
2013-02-15 02:56:00,38.3,34.5,30.06,West,263,0.0,0.0,86,0.00,,---,0.00,VWS V13.01,2013-02-15 08:56:00,
2013-02-15 03:00:00,38.4,34.6,30.06,West,263,0.0,0.0,86,0.00,,---,0.00,VWS V13.01,2013-02-15 09:00:00,
2013-02-15 03:01:00,38.3,34.5,30.06,West,263,0.0,0.0,86,0.00,,---,0.00,VWS V13.01,2013-02-15 09:01:00,
2013-02-15 03:06:00,38.4,34.9,30.06,West,263,2.0,2.0,87,0.00,,---,0.00,VWS V13.01,2013-02-15 09:06:00,
2013-02-15 03:11:00,38.6,34.8,30.06,West,263,1.0,2.0,86,0.00,,---,0.00,VWS V13.01,2013-02-15 09:11:00,
2013-02-15 03:16:00,38.7,35.2,30.06,West,263,0.0,2.0,87,0.00,,---,0.00,VWS V13.01,2013-02-15 09:16:00,
2013-02-15 03:21:00,38.7,34.9,30.06,West,263,0.0,2.0,86,0.00,,---,0.00,VWS V13.01,2013-02-15 09:21:00,
2013-02-15 03:26:00,38.7,34.9,30.06,West,263,0.0,2.0,86,0.00,,---,0.00,VWS V13.01,2013-02-15 09:26:00,
2013-02-15 03:30:00,38.6,34.8,30.06,West,263,0.0,2.0,86,0.00,,---,0.00,VWS V13.01,2013-02-15 09:30:00,
2013-02-15 03:31:00,38.6,34.8,30.06,West,263,0.0,2.0,86,0.00,,---,0.00,VWS V13.01,2013-02-15 09:31:00,
2013-02-15 03:36:00,38.5,34.7,30.06,West,263,0.0,0.0,86,0.00,,---,0.00,VWS V13.01,2013-02-15 09:36:00,
2013-02-15 03:41:00,38.5,34.7,30.06,West,263,0.0,0.0,86,0.00,,---,0.00,VWS V13.01,2013-02-15 09:41:00,
2013-02-15 03:46:00,38.6,34.8,30.06,West,263,0.0,0.0,86,0.00,,---,0.00,VWS V13.01,2013-02-15 09:46:00,
2013-02-15 03:51:00,38.6,34.8,30.06,West,263,0.0,0.0,86,0.00,,---,0.00,VWS V13.01,2013-02-15 09:51:00,
2013-02-15 03:55:00,38.5,34.7,30.06,West,263,0.0,0.0,86,0.00,,---,0.00,VWS V13.01,2013-02-15 09:55:00,
2013-02-15 04:00:00,38.4,34.6,30.06,West,263,0.0,0.0,86,0.00,,---,0.00,VWS V13.01,2013-02-15 10:00:00,
2013-02-15 04:05:00,38.3,34.8,30.07,West,263,0.0,0.0,87,0.00,,---,0.00,VWS V13.01,2013-02-15 10:05:00,
2013-02-15 04:10:00,38.2,34.7,30.07,West,263,0.0,0.0,87,0.00,,---,0.00,VWS V13.01,2013-02-15 10:10:00,
2013-02-15 04:15:00,38.0,34.5,30.07,West,263,0.0,0.0,87,0.00,,---,0.00,VWS V13.01,2013-02-15 10:15:00,
2013-02-15 04:20:00,38.0,34.5,30.07,West,263,0.0,0.0,87,0.00,,---,0.00,VWS V13.01,2013-02-15 10:20:00,
2013-02-15 04:25:00,37.9,34.4,30.07,West,263,0.0,0.0,87,0.00,,---,0.00,VWS V13.01,2013-02-15 10:25:00,
2013-02-15 04:30:00,37.8,34.6,30.08,West,263,0.0,0.0,88,0.00,,---,0.00,VWS V13.01,2013-02-15 10:30:00,
2013-02-15 04:35:00,37.8,34.6,30.08,West,263,0.0,0.0,88,0.00,,---,0.00,VWS V13.01,2013-02-15 10:35:00,
2013-02-15 04:40:00,37.7,34.5,30.08,West,263,0.0,0.0,88,0.00,,---,0.00,VWS V13.01,2013-02-15 10:40:00,
2013-02-15 04:45:00,37.7,34.5,30.08,West,263,0.0,0.0,88,0.00,,---,0.00,VWS V13.01,2013-02-15 10:45:00,
2013-02-15 04:50:00,37.7,34.5,30.08,West,263,0.0,0.0,88,0.00,,---,0.00,VWS V13.01,2013-02-15 10:50:00,
2013-02-15 04:55:00,37.6,34.7,30.08,West,263,0.0,0.0,89,0.00,,---,0.00,VWS V13.01,2013-02-15 10:55:00,
2013-02-15 05:00:00,37.6,34.7,30.09,West,263,0.0,0.0,89,0.00,,---,0.00,VWS V13.01,2013-02-15 11:00:00,
2013-02-15 05:05:00,37.7,34.8,30.08,West,263,0.0,0.0,89,0.00,,---,0.00,VWS V13.01,2013-02-15 11:05:00,
2013-02-15 05:10:00,37.7,35.0,30.09,West,263,0.0,0.0,90,0.00,,---,0.00,VWS V13.01,2013-02-15 11:10:00,
2013-02-15 05:15:00,37.8,35.1,30.09,West,263,0.0,0.0,90,0.00,,---,0.00,VWS V13.01,2013-02-15 11:15:00,
2013-02-15 05:20:00,37.7,35.0,30.09,West,263,0.0,0.0,90,0.00,,---,0.00,VWS V13.01,2013-02-15 11:20:00,
2013-02-15 05:25:00,37.6,34.9,30.09,West,263,0.0,1.0,90,0.00,,---,0.00,VWS V13.01,2013-02-15 11:25:00,
2013-02-15 05:30:00,37.5,34.8,30.09,West,263,0.0,1.0,90,0.00,,---,0.00,VWS V13.01,2013-02-15 11:30:00,
2013-02-15 05:35:00,37.3,34.6,30.09,West,263,0.0,0.0,90,0.00,,---,0.00,VWS V13.01,2013-02-15 11:35:00,
2013-02-15 05:40:00,37.2,34.5,30.10,West,263,0.0,0.0,90,0.00,,---,0.00,VWS V13.01,2013-02-15 11:40:00,
2013-02-15 05:45:00,37.1,34.4,30.10,West,263,0.0,0.0,90,0.00,,---,0.00,VWS V13.01,2013-02-15 11:45:00,
2013-02-15 05:50:00,37.2,34.8,30.10,West,263,0.0,0.0,91,0.00,,---,0.00,VWS V13.01,2013-02-15 11:50:00,
2013-02-15 05:55:00,37.3,34.6,30.10,West,263,0.0,0.0,90,0.00,,---,0.00,VWS V13.01,2013-02-15 11:55:00,
2013-02-15 06:00:00,37.3,34.6,30.10,West,263,0.0,0.0,90,0.00,,---,0.00,VWS V13.01,2013-02-15 12:00:00,
2013-02-15 06:05:00,37.3,34.6,30.11,West,263,0.0,0.0,90,0.00,,---,0.00,VWS V13.01,2013-02-15 12:05:00,
2013-02-15 06:10:00,37.3,34.4,30.11,West,263,0.0,0.0,89,0.00,,---,0.00,VWS V13.01,2013-02-15 12:10:00,
2013-02-15 06:15:00,37.2,34.3,30.11,West,263,0.0,0.0,89,0.00,,---,0.00,VWS V13.01,2013-02-15 12:15:00,
2013-02-15 06:20:00,37.2,34.5,30.11,West,263,0.0,0.0,90,0.00,,---,0.00,VWS V13.01,2013-02-15 12:20:00,
2013-02-15 06:25:00,37.3,34.6,30.11,West,263,0.0,0.0,90,0.00,,---,0.00,VWS V13.01,2013-02-15 12:25:00,
2013-02-15 06:30:00,37.4,34.7,30.11,West,263,0.0,0.0,90,0.00,,---,0.00,VWS V13.01,2013-02-15 12:30:00,
2013-02-15 06:35:00,37.5,34.8,30.11,West,263,0.0,0.0,90,0.00,,---,0.00,VWS V13.01,2013-02-15 12:35:00,
2013-02-15 06:40:00,37.7,35.0,30.12,West,263,0.0,0.0,90,0.00,,---,0.00,VWS V13.01,2013-02-15 12:40:00,
2013-02-15 06:45:00,37.9,35.2,30.12,WSW,253,2.0,3.0,90,0.00,,---,0.00,VWS V13.01,2013-02-15 12:45:00,
2013-02-15 06:50:00,38.1,35.2,30.12,WSW,254,2.0,4.0,89,0.00,,---,0.00,VWS V13.01,2013-02-15 12:50:00,
2013-02-15 06:55:00,38.3,35.3,30.12,WSW,254,1.0,4.0,89,0.00,,---,0.00,VWS V13.01,2013-02-15 12:55:00,
2013-02-15 07:00:00,38.4,35.2,30.12,WSW,254,4.0,5.0,88,0.00,,---,0.00,VWS V13.01,2013-02-15 13:00:00,
2013-02-15 07:05:00,38.7,35.5,30.13,WSW,253,3.0,4.0,88,0.00,,---,0.00,VWS V13.01,2013-02-15 13:05:00,
2013-02-15 07:10:00,38.9,35.7,30.13,WSW,253,4.0,4.0,88,0.00,,---,0.00,VWS V13.01,2013-02-15 13:10:00,
2013-02-15 07:15:00,39.1,35.6,30.13,WSW,254,4.0,6.0,87,0.00,,---,0.00,VWS V13.01,2013-02-15 13:15:00,
2013-02-15 07:30:00,39.1,34.4,30.14,WSW,248,4.0,11.0,83,0.00,,---,0.00,VWS V13.01,2013-02-15 13:30:00,
2013-02-15 07:45:00,39.1,34.4,30.14,WSW,248,4.0,11.0,83,0.00,,---,0.00,VWS V13.01,2013-02-15 13:45:00,
2013-02-15 07:50:00,40.1,34.8,30.15,North,360,5.0,13.0,81,0.00,,---,0.00,VWS V13.01,2013-02-15 13:50:00,
2013-02-15 07:55:00,40.2,34.5,30.15,North,360,4.0,13.0,80,0.00,,---,0.00,VWS V13.01,2013-02-15 13:55:00,
2013-02-15 08:00:00,40.2,34.5,30.15,North,11,10.0,13.0,80,0.00,,---,0.00,VWS V13.01,2013-02-15 14:00:00,
2013-02-15 08:02:00,40.1,34.4,30.15,North,11,4.0,10.0,80,0.00,,---,0.00,VWS V13.01,2013-02-15 14:02:00,
2013-02-15 08:07:00,40.2,34.8,30.16,North,11,4.0,10.0,81,0.00,,---,0.00,VWS V13.01,2013-02-15 14:07:00,
2013-02-15 08:12:00,40.1,34.8,30.15,North,10,5.0,10.0,81,0.00,,---,0.00,VWS V13.01,2013-02-15 14:12:00,
2013-02-15 08:17:00,40.1,34.4,30.15,North,11,3.0,10.0,80,0.00,,---,0.00,VWS V13.01,2013-02-15 14:17:00,
2013-02-15 08:22:00,40.1,34.8,30.15,North,11,3.0,10.0,81,0.00,,---,0.00,VWS V13.01,2013-02-15 14:22:00,
2013-02-15 08:27:00,40.1,34.8,30.15,North,11,4.0,10.0,81,0.00,,---,0.00,VWS V13.01,2013-02-15 14:27:00,
2013-02-15 08:30:00,40.0,35.0,30.15,North,10,4.0,10.0,82,0.00,,---,0.00,VWS V13.01,2013-02-15 14:30:00,
2013-02-15 08:32:00,40.0,35.0,30.15,North,10,2.0,4.0,82,0.00,,---,0.00,VWS V13.01,2013-02-15 14:32:00,
2013-02-15 08:37:00,40.0,34.7,30.15,North,11,3.0,4.0,81,0.00,,---,0.00,VWS V13.01,2013-02-15 14:37:00,
2013-02-15 08:42:00,39.9,34.5,30.15,North,11,0.0,4.0,81,0.00,,---,0.00,VWS V13.01,2013-02-15 14:42:00,
2013-02-15 08:47:00,39.9,34.5,30.15,North,11,2.0,4.0,81,0.00,,---,0.00,VWS V13.01,2013-02-15 14:47:00,
2013-02-15 08:52:00,39.9,34.9,30.15,North,10,2.0,4.0,82,0.00,,---,0.00,VWS V13.01,2013-02-15 14:52:00,
2013-02-15 08:57:00,39.9,34.9,30.15,North,11,0.0,4.0,82,0.00,,---,0.00,VWS V13.01,2013-02-15 14:57:00,
2013-02-15 09:00:00,40.0,35.0,30.15,North,11,0.0,4.0,82,0.00,,---,0.00,VWS V13.01,2013-02-15 15:00:00,
2013-02-15 09:02:00,40.0,35.0,30.15,North,11,0.0,0.0,82,0.00,,---,0.00,VWS V13.01,2013-02-15 15:02:00,
2013-02-15 09:07:00,40.0,35.0,30.15,North,11,0.0,0.0,82,0.00,,---,0.00,VWS V13.01,2013-02-15 15:07:00,
2013-02-15 09:12:00,40.2,35.2,30.15,North,10,1.0,3.0,82,0.00,,---,0.00,VWS V13.01,2013-02-15 15:12:00,
2013-02-15 09:17:00,40.4,35.0,30.16,North,11,3.0,5.0,81,0.00,,---,0.00,VWS V13.01,2013-02-15 15:17:00,
2013-02-15 09:22:00,40.8,35.4,30.16,North,10,4.0,5.0,81,0.00,,---,0.00,VWS V13.01,2013-02-15 15:22:00,
2013-02-15 09:27:00,41.2,35.5,30.16,North,11,4.0,6.0,80,0.00,,---,0.00,VWS V13.01,2013-02-15 15:27:00,
2013-02-15 09:30:00,41.5,35.5,30.16,North,11,4.0,7.0,79,0.00,,---,0.00,VWS V13.01,2013-02-15 15:30:00,
2013-02-15 09:32:00,41.5,35.2,30.16,North,11,1.0,5.0,78,0.00,,---,0.00,VWS V13.01,2013-02-15 15:32:00,
2013-02-15 09:37:00,42.0,35.7,30.16,North,10,4.0,5.0,78,0.00,,---,0.00,VWS V13.01,2013-02-15 15:37:00,
2013-02-15 09:42:00,42.4,35.7,30.17,North,11,3.0,8.0,77,0.00,,---,0.00,VWS V13.01,2013-02-15 15:42:00,
2013-02-15 09:47:00,42.8,36.1,30.16,North,11,3.0,8.0,77,0.00,,---,0.00,VWS V13.01,2013-02-15 15:47:00,
2013-02-15 09:52:00,43.3,36.3,30.17,North,360,7.0,8.0,76,0.00,,---,0.00,VWS V13.01,2013-02-15 15:52:00,
2013-02-15 09:57:00,44.0,35.9,30.17,North,5,3.0,9.0,73,0.00,,---,0.00,VWS V13.01,2013-02-15 15:57:00,
2013-02-15 10:00:00,44.5,36.0,30.16,North,5,4.0,9.0,72,0.00,,---,0.00,VWS V13.01,2013-02-15 16:00:00,
2013-02-15 10:02:00,44.6,36.2,30.16,North,9,7.0,11.0,72,0.00,,---,0.00,VWS V13.01,2013-02-15 16:02:00,
2013-02-15 10:07:00,45.1,35.5,30.16,North,9,10.0,13.0,69,0.00,,---,0.00,VWS V13.01,2013-02-15 16:07:00,
2013-02-15 10:12:00,45.8,36.2,30.16,North,9,6.0,13.0,69,0.00,,---,0.00,VWS V13.01,2013-02-15 16:12:00,
2013-02-15 10:17:00,46.1,35.0,30.16,North,11,9.0,13.0,65,0.00,,---,0.00,VWS V13.01,2013-02-15 16:17:00,
2013-02-15 10:22:00,46.1,35.0,30.17,North,11,5.0,13.0,65,0.00,,---,0.00,VWS V13.01,2013-02-15 16:22:00,
2013-02-15 10:27:00,46.2,35.1,30.17,NNW,346,7.0,15.0,65,0.00,,---,0.00,VWS V13.01,2013-02-15 16:27:00,
2013-02-15 10:30:00,46.4,34.9,30.17,NNW,344,5.0,15.0,64,0.00,,---,0.00,VWS V13.01,2013-02-15 16:30:00,
2013-02-15 10:32:00,46.5,35.0,30.17,NNW,344,7.0,8.0,64,0.00,,---,0.00,VWS V13.01,2013-02-15 16:32:00,
2013-02-15 10:37:00,46.9,35.4,30.16,NNW,334,5.0,14.0,64,0.00,,---,0.00,VWS V13.01,2013-02-15 16:37:00,
2013-02-15 10:42:00,46.9,35.0,30.16,North,355,6.0,14.0,63,0.00,,---,0.00,VWS V13.01,2013-02-15 16:42:00,
2013-02-15 10:47:00,47.0,35.1,30.16,North,355,7.0,14.0,63,0.00,,---,0.00,VWS V13.01,2013-02-15 16:47:00,
2013-02-15 10:52:00,47.1,34.8,30.16,NNW,343,7.0,14.0,62,0.00,,---,0.00,VWS V13.01,2013-02-15 16:52:00,
2013-02-15 10:57:00,47.2,35.3,30.16,North,360,11.0,14.0,63,0.00,,---,0.00,VWS V13.01,2013-02-15 16:57:00,
2013-02-15 11:00:00,47.2,33.2,30.16,NNE,15,9.0,14.0,58,0.00,,---,0.00,VWS V13.01,2013-02-15 17:00:00,
2013-02-15 11:02:00,47.2,34.0,30.16,NNE,13,10.0,10.0,60,0.00,,---,0.00,VWS V13.01,2013-02-15 17:02:00,
2013-02-15 11:07:00,46.8,34.1,30.16,North,360,7.0,13.0,61,0.00,,---,0.00,VWS V13.01,2013-02-15 17:07:00,
2013-02-15 11:12:00,47.0,34.3,30.16,North,355,9.0,13.0,61,0.00,,---,0.00,VWS V13.01,2013-02-15 17:12:00,
2013-02-15 11:17:00,47.6,34.8,30.16,NNW,343,7.0,13.0,61,0.00,,---,0.00,VWS V13.01,2013-02-15 17:17:00,
2013-02-15 11:22:00,48.2,35.4,30.15,NNW,343,5.0,13.0,61,0.00,,---,0.00,VWS V13.01,2013-02-15 17:22:00,
2013-02-15 11:27:00,48.2,35.4,30.15,NW,323,9.0,13.0,61,0.00,,---,0.00,VWS V13.01,2013-02-15 17:27:00,
2013-02-15 11:30:00,48.2,34.1,30.15,NW,325,5.0,13.0,58,0.00,,---,0.00,VWS V13.01,2013-02-15 17:30:00,
2013-02-15 11:32:00,48.2,34.1,30.15,NW,325,4.0,10.0,58,0.00,,---,0.00,VWS V13.01,2013-02-15 17:32:00,
2013-02-15 11:37:00,48.7,34.6,30.15,North,355,11.0,13.0,58,0.00,,---,0.00,VWS V13.01,2013-02-15 17:37:00,
2013-02-15 11:42:00,48.0,35.2,30.15,NNW,343,9.0,15.0,61,0.00,,---,0.00,VWS V13.01,2013-02-15 17:42:00,
2013-02-15 11:47:00,47.1,32.7,30.15,NNW,344,10.0,15.0,57,0.00,,---,0.00,VWS V13.01,2013-02-15 17:47:00,
2013-02-15 11:52:00,46.9,32.9,30.15,NNW,345,3.0,15.0,58,0.00,,---,0.00,VWS V13.01,2013-02-15 17:52:00,
2013-02-15 11:57:00,47.2,32.3,30.15,NNW,345,7.0,15.0,56,0.00,,---,0.00,VWS V13.01,2013-02-15 17:57:00,
2013-02-15 12:00:00,47.2,33.2,30.15,NNW,344,5.0,15.0,58,0.00,,---,0.00,VWS V13.01,2013-02-15 18:00:00,
2013-02-15 12:02:00,47.2,33.2,30.15,NNW,344,6.0,10.0,58,0.00,,---,0.00,VWS V13.01,2013-02-15 18:02:00,
2013-02-15 12:06:00,47.5,32.2,30.15,NNW,329,10.0,17.0,55,0.00,,---,0.00,VWS V13.01,2013-02-15 18:06:00,
2013-02-15 12:07:00,44.6,24.0,30.16,SSW,209,3.0,6.0,44,0.00,,---,0.00,VWS V13.01,2013-02-15 18:07:00,
2013-02-15 12:08:00,44.6,24.6,30.16,SSW,209,4.0,6.0,45,0.00,,---,0.00,VWS V13.01,2013-02-15 18:08:00,
2013-02-15 12:09:00,44.7,24.7,30.16,SSW,209,9.0,10.0,45,0.00,,---,0.00,VWS V13.01,2013-02-15 18:09:00,
2013-02-15 12:10:00,44.8,24.8,30.16,SSW,207,6.0,10.0,45,0.00,,---,0.00,VWS V13.01,2013-02-15 18:10:00,
2013-02-15 12:11:00,47.7,31.4,30.15,NNW,338,7.0,17.0,53,0.00,,---,0.00,VWS V13.01,2013-02-15 18:11:00,
2013-02-15 12:12:00,45.0,25.5,30.16,SSW,207,3.0,10.0,46,0.00,,---,0.00,VWS V13.01,2013-02-15 18:12:00,
2013-02-15 12:13:00,45.0,25.0,30.16,SSW,207,3.0,10.0,45,0.00,,---,0.00,VWS V13.01,2013-02-15 18:13:00,
2013-02-15 12:14:00,45.1,25.6,30.16,SSW,207,6.0,10.0,46,0.00,,---,0.00,VWS V13.01,2013-02-15 18:14:00,
2013-02-15 12:15:00,45.2,24.6,30.16,SSW,205,4.0,10.0,44,0.00,,---,0.00,VWS V13.01,2013-02-15 18:15:00,
2013-02-15 12:16:00,47.2,32.3,30.15,NNW,338,7.0,17.0,56,0.00,,---,0.00,VWS V13.01,2013-02-15 18:16:00,
2013-02-15 12:17:00,45.2,24.6,30.16,SSW,198,5.0,10.0,44,0.00,,---,0.00,VWS V13.01,2013-02-15 18:17:00,
2013-02-15 12:18:00,45.2,24.6,30.16,SSW,198,7.0,11.0,44,0.00,,---,0.00,VWS V13.01,2013-02-15 18:18:00,
2013-02-15 12:19:00,45.2,24.6,30.16,SSW,196,5.0,11.0,44,0.00,,---,0.00,VWS V13.01,2013-02-15 18:19:00,
2013-02-15 12:20:00,45.1,24.0,30.16,SSW,196,6.0,11.0,43,0.00,,---,0.00,VWS V13.01,2013-02-15 18:20:00,
2013-02-15 12:21:00,45.1,24.5,30.16,SSW,196,9.0,11.0,44,0.00,,---,0.00,VWS V13.01,2013-02-15 18:21:00,
2013-02-15 12:22:00,45.1,25.0,30.16,SSW,197,5.0,11.0,45,0.00,,---,0.00,VWS V13.01,2013-02-15 18:22:00,
2013-02-15 12:23:00,45.1,24.5,30.16,SSW,200,7.0,11.0,44,0.00,,---,0.00,VWS V13.01,2013-02-15 18:23:00,
2013-02-15 12:24:00,45.1,25.0,30.16,SSW,200,4.0,11.0,45,0.00,,---,0.00,VWS V13.01,2013-02-15 18:24:00,
2013-02-15 12:25:00,45.1,24.5,30.16,SSW,200,6.0,11.0,44,0.00,,---,0.00,VWS V13.01,2013-02-15 18:25:00,
2013-02-15 12:26:00,45.1,25.6,30.16,SSW,201,4.0,11.0,46,0.00,,---,0.00,VWS V13.01,2013-02-15 18:26:00,
2013-02-15 12:27:00,45.2,25.1,30.16,SSW,204,9.0,11.0,45,0.00,,---,0.00,VWS V13.01,2013-02-15 18:27:00,
2013-02-15 12:28:00,45.1,25.6,30.16,SSW,205,9.0,11.0,46,0.00,,---,0.00,VWS V13.01,2013-02-15 18:28:00,
2013-02-15 12:29:00,45.1,24.5,30.16,SSW,209,10.0,11.0,44,0.00,,---,0.00,VWS V13.01,2013-02-15 18:29:00,
2013-02-15 12:30:00,45.0,24.4,30.16,SSW,209,4.0,11.0,44,0.00,,---,0.00,VWS V13.01,2013-02-15 18:30:00,
2013-02-15 12:31:00,45.0,24.4,30.16,SSW,209,6.0,6.0,44,0.00,,---,0.00,VWS V13.01,2013-02-15 18:31:00,
2013-02-15 12:32:00,45.0,24.4,30.16,SSW,209,4.0,7.0,44,0.00,,---,0.00,VWS V13.01,2013-02-15 18:32:00,
2013-02-15 12:33:00,45.0,24.4,30.16,SSW,209,7.0,11.0,44,0.00,,---,0.00,VWS V13.01,2013-02-15 18:33:00,
2013-02-15 12:34:00,44.9,24.3,30.16,SSW,209,6.0,11.0,44,0.00,,---,0.00,VWS V13.01,2013-02-15 18:34:00,
2013-02-15 12:35:00,44.9,24.3,30.16,SSW,207,8.0,11.0,44,0.00,,---,0.00,VWS V13.01,2013-02-15 18:35:00,
2013-02-15 12:36:00,44.9,25.4,30.16,SSW,207,7.0,11.0,46,0.00,,---,0.00,VWS V13.01,2013-02-15 18:36:00,
2013-02-15 12:37:00,44.9,24.9,30.15,SSW,209,5.0,11.0,45,0.00,,---,0.00,VWS V13.01,2013-02-15 18:37:00,
2013-02-15 12:38:00,44.9,24.3,30.15,SSW,207,6.0,11.0,44,0.00,,---,0.00,VWS V13.01,2013-02-15 18:38:00,
2013-02-15 12:39:00,45.0,24.4,30.15,SSW,207,9.0,11.0,44,0.00,,---,0.00,VWS V13.01,2013-02-15 18:39:00,
2013-02-15 12:40:00,44.9,24.3,30.15,SSW,207,6.0,11.0,44,0.00,,---,0.00,VWS V13.01,2013-02-15 18:40:00,
2013-02-15 12:41:00,44.9,24.3,30.15,SSW,206,3.0,11.0,44,0.00,,---,0.00,VWS V13.01,2013-02-15 18:41:00,
2013-02-15 12:42:00,44.9,24.3,30.15,SSW,207,5.0,11.0,44,0.00,,---,0.00,VWS V13.01,2013-02-15 18:42:00,
2013-02-15 12:43:00,44.9,24.3,30.15,SSW,206,3.0,11.0,44,0.00,,---,0.00,VWS V13.01,2013-02-15 18:43:00,
2013-02-15 12:44:00,45.0,23.9,30.15,SSW,206,4.0,11.0,43,0.00,,---,0.00,VWS V13.01,2013-02-15 18:44:00,
2013-02-15 12:45:00,44.9,23.8,30.15,SSW,206,6.0,11.0,43,0.00,,---,0.00,VWS V13.01,2013-02-15 18:45:00,
2013-02-15 12:46:00,45.0,24.4,30.15,SSW,207,4.0,11.0,44,0.00,,---,0.00,VWS V13.01,2013-02-15 18:46:00,
2013-02-15 12:47:00,45.0,24.4,30.15,SSW,206,2.0,11.0,44,0.00,,---,0.00,VWS V13.01,2013-02-15 18:47:00,
2013-02-15 12:48:00,45.0,24.4,30.15,SSW,207,9.0,11.0,44,0.00,,---,0.00,VWS V13.01,2013-02-15 18:48:00,
2013-02-15 12:49:00,45.0,24.4,30.15,SSW,207,6.0,11.0,44,0.00,,---,0.00,VWS V13.01,2013-02-15 18:49:00,
2013-02-15 12:50:00,45.0,24.4,30.15,SSW,206,5.0,11.0,44,0.00,,---,0.00,VWS V13.01,2013-02-15 18:50:00,
2013-02-15 12:51:00,45.1,25.0,30.15,SSW,206,8.0,11.0,45,0.00,,---,0.00,VWS V13.01,2013-02-15 18:51:00,
2013-02-15 12:52:00,45.1,25.0,30.15,SSW,209,7.0,11.0,45,0.00,,---,0.00,VWS V13.01,2013-02-15 18:52:00,
2013-02-15 12:53:00,45.2,24.6,30.15,SSW,206,6.0,11.0,44,0.00,,---,0.00,VWS V13.01,2013-02-15 18:53:00,
2013-02-15 12:54:00,45.3,25.2,30.15,SSW,205,7.0,11.0,45,0.00,,---,0.00,VWS V13.01,2013-02-15 18:54:00,
2013-02-15 12:55:00,45.4,25.3,30.15,SSW,205,3.0,11.0,45,0.00,,---,0.00,VWS V13.01,2013-02-15 18:55:00,
2013-02-15 12:56:00,45.5,25.4,30.15,SSW,205,4.0,11.0,45,0.00,,---,0.00,VWS V13.01,2013-02-15 18:56:00,
2013-02-15 12:57:00,45.7,25.6,30.15,SSW,202,6.0,11.0,45,0.00,,---,0.00,VWS V13.01,2013-02-15 18:57:00,
2013-02-15 12:58:00,45.8,25.1,30.15,South,184,10.0,12.0,44,0.00,,---,0.00,VWS V13.01,2013-02-15 18:58:00,
2013-02-15 12:59:00,46.0,25.9,30.15,South,184,9.0,12.0,45,0.00,,---,0.00,VWS V13.01,2013-02-15 18:59:00,
2013-02-15 13:00:00,46.2,25.0,30.15,South,185,5.0,12.0,43,0.00,,---,0.00,VWS V13.01,2013-02-15 19:00:00,
2013-02-15 13:01:00,46.3,25.6,30.15,South,185,4.0,10.0,44,0.00,,---,0.00,VWS V13.01,2013-02-15 19:01:00,
2013-02-15 13:02:00,46.3,25.0,30.15,South,184,4.0,10.0,43,0.00,,---,0.00,VWS V13.01,2013-02-15 19:02:00,
2013-02-15 13:03:00,46.5,26.9,30.15,SSW,200,6.0,11.0,46,0.00,,---,0.00,VWS V13.01,2013-02-15 19:03:00,
2013-02-15 13:04:00,46.5,25.8,30.15,SSW,202,8.0,11.0,44,0.00,,---,0.00,VWS V13.01,2013-02-15 19:04:00,
2013-02-15 13:05:00,46.6,25.9,30.15,SSW,202,7.0,11.0,44,0.00,,---,0.00,VWS V13.01,2013-02-15 19:05:00,
2013-02-15 13:06:00,46.7,26.0,30.15,SSW,202,6.0,11.0,44,0.00,,---,0.00,VWS V13.01,2013-02-15 19:06:00,
2013-02-15 13:07:00,46.7,25.4,30.14,SSW,204,7.0,11.0,43,0.00,,---,0.00,VWS V13.01,2013-02-15 19:07:00,
2013-02-15 13:08:00,46.7,26.0,30.14,SSW,205,11.0,15.0,44,0.00,,---,0.00,VWS V13.01,2013-02-15 19:08:00,
2013-02-15 13:09:00,46.6,25.3,30.15,SSW,206,6.0,15.0,43,0.00,,---,0.00,VWS V13.01,2013-02-15 19:09:00,
2013-02-15 13:10:00,46.6,25.3,30.14,SSW,205,7.0,15.0,43,0.00,,---,0.00,VWS V13.01,2013-02-15 19:10:00,
2013-02-15 13:11:00,46.6,24.8,30.15,SSW,203,5.0,15.0,42,0.00,,---,0.00,VWS V13.01,2013-02-15 19:11:00,
2013-02-15 13:12:00,46.7,26.0,30.15,SSW,203,5.0,15.0,44,0.00,,---,0.00,VWS V13.01,2013-02-15 19:12:00,
2013-02-15 13:13:00,46.7,25.4,30.14,SSW,203,5.0,15.0,43,0.00,,---,0.00,VWS V13.01,2013-02-15 19:13:00,
2013-02-15 13:14:00,46.7,24.8,30.14,SSW,204,6.0,15.0,42,0.00,,---,0.00,VWS V13.01,2013-02-15 19:14:00,
2013-02-15 13:15:00,46.7,24.3,30.14,SSW,203,6.0,15.0,41,0.00,,---,0.00,VWS V13.01,2013-02-15 19:15:00,
2013-02-15 13:16:00,46.7,24.8,30.14,SSW,200,6.0,15.0,42,0.00,,---,0.00,VWS V13.01,2013-02-15 19:16:00,
2013-02-15 13:17:00,46.7,24.8,30.14,SSW,200,6.0,15.0,42,0.00,,---,0.00,VWS V13.01,2013-02-15 19:17:00,
2013-02-15 13:18:00,46.7,25.4,30.14,SSW,199,6.0,15.0,43,0.00,,---,0.00,VWS V13.01,2013-02-15 19:18:00,
2013-02-15 13:19:00,46.7,24.3,30.14,SSW,195,7.0,15.0,41,0.00,,---,0.00,VWS V13.01,2013-02-15 19:19:00,
2013-02-15 13:20:00,46.7,24.3,30.14,SSW,195,3.0,15.0,41,0.00,,---,0.00,VWS V13.01,2013-02-15 19:20:00,
2013-02-15 13:21:00,46.6,24.8,30.14,South,191,11.0,15.0,42,0.00,,---,0.00,VWS V13.01,2013-02-15 19:21:00,
2013-02-15 13:22:00,46.6,24.2,30.14,South,189,6.0,15.0,41,0.00,,---,0.00,VWS V13.01,2013-02-15 19:22:00,
2013-02-15 13:23:00,46.5,24.7,30.14,South,189,3.0,15.0,42,0.00,,---,0.00,VWS V13.01,2013-02-15 19:23:00,
2013-02-15 13:24:00,46.6,24.8,30.14,SSW,194,6.0,15.0,42,0.00,,---,0.00,VWS V13.01,2013-02-15 19:24:00,
2013-02-15 13:25:00,46.6,24.8,30.14,SSW,192,6.0,15.0,42,0.00,,---,0.00,VWS V13.01,2013-02-15 19:25:00,
2013-02-15 13:26:00,46.6,24.8,30.14,SSW,199,7.0,15.0,42,0.00,,---,0.00,VWS V13.01,2013-02-15 19:26:00,
2013-02-15 13:27:00,46.6,24.2,30.14,SSW,199,5.0,15.0,41,0.00,,---,0.00,VWS V13.01,2013-02-15 19:27:00,
2013-02-15 13:28:00,46.6,24.8,30.14,SSW,200,6.0,15.0,42,0.00,,---,0.00,VWS V13.01,2013-02-15 19:28:00,
2013-02-15 13:29:00,46.6,24.2,30.14,SSW,200,7.0,15.0,41,0.00,,---,0.00,VWS V13.01,2013-02-15 19:29:00,
2013-02-15 13:30:00,46.6,24.8,30.14,SSW,200,4.0,15.0,42,0.00,,---,0.00,VWS V13.01,2013-02-15 19:30:00,
2013-02-15 13:31:00,46.6,24.8,30.14,SSW,202,8.0,12.0,42,0.00,,---,0.00,VWS V13.01,2013-02-15 19:31:00,
2013-02-15 13:32:00,46.6,24.2,30.14,SSW,196,10.0,12.0,41,0.00,,---,0.00,VWS V13.01,2013-02-15 19:32:00,
2013-02-15 13:33:00,46.6,24.8,30.14,South,186,7.0,12.0,42,0.00,,---,0.00,VWS V13.01,2013-02-15 19:33:00,
2013-02-15 13:34:00,46.6,24.2,30.14,South,186,3.0,12.0,41,0.00,,---,0.00,VWS V13.01,2013-02-15 19:34:00,
2013-02-15 13:35:00,46.6,24.2,30.14,South,186,7.0,12.0,41,0.00,,---,0.00,VWS V13.01,2013-02-15 19:35:00,
2013-02-15 13:36:00,46.6,25.3,30.14,South,186,4.0,12.0,43,0.00,,---,0.00,VWS V13.01,2013-02-15 19:36:00,
2013-02-15 13:37:00,46.7,25.4,30.14,South,186,5.0,12.0,43,0.00,,---,0.00,VWS V13.01,2013-02-15 19:37:00,
2013-02-15 13:38:00,46.7,24.8,30.14,South,186,5.0,12.0,42,0.00,,---,0.00,VWS V13.01,2013-02-15 19:38:00,
2013-02-15 13:39:00,46.7,24.8,30.14,South,186,7.0,12.0,42,0.00,,---,0.00,VWS V13.01,2013-02-15 19:39:00,
2013-02-15 13:40:00,46.7,24.3,30.14,South,186,4.0,12.0,41,0.00,,---,0.00,VWS V13.01,2013-02-15 19:40:00,
2013-02-15 13:41:00,46.7,25.4,30.14,South,186,5.0,12.0,43,0.00,,---,0.00,VWS V13.01,2013-02-15 19:41:00,
2013-02-15 13:42:00,46.8,25.5,30.14,South,186,2.0,12.0,43,0.00,,---,0.00,VWS V13.01,2013-02-15 19:42:00,
2013-02-15 13:43:00,46.8,24.9,30.14,South,186,4.0,12.0,42,0.00,,---,0.00,VWS V13.01,2013-02-15 19:43:00,
2013-02-15 13:44:00,46.7,24.3,30.14,South,186,3.0,12.0,41,0.00,,---,0.00,VWS V13.01,2013-02-15 19:44:00,
2013-02-15 13:45:00,46.7,24.8,30.14,South,190,6.0,12.0,42,0.00,,---,0.00,VWS V13.01,2013-02-15 19:45:00,
2013-02-15 13:46:00,46.7,24.3,30.14,South,190,3.0,12.0,41,0.00,,---,0.00,VWS V13.01,2013-02-15 19:46:00,
2013-02-15 13:47:00,46.7,24.8,30.14,South,190,5.0,12.0,42,0.00,,---,0.00,VWS V13.01,2013-02-15 19:47:00,
2013-02-15 13:48:00,46.7,25.4,30.14,South,190,7.0,12.0,43,0.00,,---,0.00,VWS V13.01,2013-02-15 19:48:00,
2013-02-15 13:49:00,46.8,24.9,30.13,SSW,192,4.0,12.0,42,0.00,,---,0.00,VWS V13.01,2013-02-15 19:49:00,
2013-02-15 13:50:00,46.8,24.9,30.13,South,188,8.0,12.0,42,0.00,,---,0.00,VWS V13.01,2013-02-15 19:50:00,
2013-02-15 13:51:00,46.8,24.4,30.13,South,188,5.0,12.0,41,0.00,,---,0.00,VWS V13.01,2013-02-15 19:51:00,
2013-02-15 13:52:00,46.7,24.8,30.13,South,188,7.0,12.0,42,0.00,,---,0.00,VWS V13.01,2013-02-15 19:52:00,
2013-02-15 13:53:00,46.8,24.4,30.13,South,191,3.0,12.0,41,0.00,,---,0.00,VWS V13.01,2013-02-15 19:53:00,
2013-02-15 13:54:00,46.7,24.8,30.13,South,190,4.0,12.0,42,0.00,,---,0.00,VWS V13.01,2013-02-15 19:54:00,
2013-02-15 13:55:00,46.7,24.8,30.13,South,190,5.0,12.0,42,0.00,,---,0.00,VWS V13.01,2013-02-15 19:55:00,
2013-02-15 13:56:00,46.7,24.3,30.13,South,188,6.0,12.0,41,0.00,,---,0.00,VWS V13.01,2013-02-15 19:56:00,
2013-02-15 13:57:00,46.7,24.8,30.13,South,188,5.0,12.0,42,0.00,,---,0.00,VWS V13.01,2013-02-15 19:57:00,
2013-02-15 13:58:00,46.6,24.2,30.13,South,187,5.0,12.0,41,0.00,,---,0.00,VWS V13.01,2013-02-15 19:58:00,
2013-02-15 13:59:00,46.5,24.7,30.13,South,188,6.0,12.0,42,0.00,,---,0.00,VWS V13.01,2013-02-15 19:59:00,
2013-02-15 14:00:00,46.5,24.1,30.13,South,187,6.0,12.0,41,0.00,,---,0.00,VWS V13.01,2013-02-15 20:00:00,
2013-02-15 14:01:00,46.5,24.7,30.13,South,180,4.0,9.0,42,0.00,,---,0.00,VWS V13.01,2013-02-15 20:01:00,
2013-02-15 14:02:00,46.5,24.7,30.13,South,181,5.0,9.0,42,0.00,,---,0.00,VWS V13.01,2013-02-15 20:02:00,
2013-02-15 14:03:00,46.5,25.2,30.13,South,181,7.0,9.0,43,0.00,,---,0.00,VWS V13.01,2013-02-15 20:03:00,
2013-02-15 14:04:00,46.5,24.7,30.13,South,182,5.0,9.0,42,0.00,,---,0.00,VWS V13.01,2013-02-15 20:04:00,
2013-02-15 14:05:00,46.5,24.7,30.13,South,182,6.0,9.0,42,0.00,,---,0.00,VWS V13.01,2013-02-15 20:05:00,
2013-02-15 14:06:00,46.5,24.7,30.13,South,182,7.0,9.0,42,0.00,,---,0.00,VWS V13.01,2013-02-15 20:06:00,
2013-02-15 14:07:00,46.5,24.1,30.13,South,187,6.0,10.0,41,0.00,,---,0.00,VWS V13.01,2013-02-15 20:07:00,
2013-02-15 14:08:00,46.5,23.5,30.13,South,188,4.0,10.0,40,0.00,,---,0.00,VWS V13.01,2013-02-15 20:08:00,
2013-02-15 14:09:00,46.4,24.6,30.13,South,186,7.0,10.0,42,0.00,,---,0.00,VWS V13.01,2013-02-15 20:09:00,
2013-02-15 14:10:00,46.4,24.6,30.13,South,180,10.0,10.0,42,0.00,,---,0.00,VWS V13.01,2013-02-15 20:10:00,
2013-02-15 14:11:00,46.3,23.9,30.13,South,178,5.0,10.0,41,0.00,,---,0.00,VWS V13.01,2013-02-15 20:11:00,
2013-02-15 14:12:00,46.3,24.5,30.13,South,178,4.0,10.0,42,0.00,,---,0.00,VWS V13.01,2013-02-15 20:12:00,
2013-02-15 14:13:00,46.2,24.4,30.13,South,178,4.0,10.0,42,0.00,,---,0.00,VWS V13.01,2013-02-15 20:13:00,
2013-02-15 14:14:00,46.1,23.7,30.12,South,177,5.0,10.0,41,0.00,,---,0.00,VWS V13.01,2013-02-15 20:14:00,
2013-02-15 14:15:00,46.1,24.3,30.13,South,176,4.0,10.0,42,0.00,,---,0.00,VWS V13.01,2013-02-15 20:15:00,
2013-02-15 14:16:00,46.0,24.2,30.13,South,177,3.0,10.0,42,0.00,,---,0.00,VWS V13.01,2013-02-15 20:16:00,
2013-02-15 14:17:00,46.0,24.8,30.13,South,177,6.0,10.0,43,0.00,,---,0.00,VWS V13.01,2013-02-15 20:17:00,
2013-02-15 14:18:00,46.0,24.2,30.12,South,179,6.0,10.0,42,0.00,,---,0.00,VWS V13.01,2013-02-15 20:18:00,
2013-02-15 14:19:00,46.0,24.2,30.13,South,180,3.0,10.0,42,0.00,,---,0.00,VWS V13.01,2013-02-15 20:19:00,
2013-02-15 14:20:00,46.1,24.9,30.12,South,180,0.0,10.0,43,0.00,,---,0.00,VWS V13.01,2013-02-15 20:20:00,
2013-02-15 14:21:00,46.1,24.9,30.12,South,179,6.0,10.0,43,0.00,,---,0.00,VWS V13.01,2013-02-15 20:21:00,
2013-02-15 14:22:00,46.1,24.3,30.12,South,179,7.0,10.0,42,0.00,,---,0.00,VWS V13.01,2013-02-15 20:22:00,
2013-02-15 14:23:00,46.1,24.9,30.12,South,179,4.0,10.0,43,0.00,,---,0.00,VWS V13.01,2013-02-15 20:23:00,
2013-02-15 14:24:00,46.0,24.2,30.12,South,179,4.0,10.0,42,0.00,,---,0.00,VWS V13.01,2013-02-15 20:24:00,
2013-02-15 14:25:00,46.0,24.2,30.12,South,179,4.0,10.0,42,0.00,,---,0.00,VWS V13.01,2013-02-15 20:25:00,
2013-02-15 14:26:00,46.0,24.2,30.12,South,179,5.0,10.0,42,0.00,,---,0.00,VWS V13.01,2013-02-15 20:26:00,
2013-02-15 14:27:00,46.0,24.8,30.12,South,179,2.0,11.0,43,0.00,,---,0.00,VWS V13.01,2013-02-15 20:27:00,
2013-02-15 14:28:00,46.0,24.8,30.12,South,179,2.0,11.0,43,0.00,,---,0.00,VWS V13.01,2013-02-15 20:28:00,
2013-02-15 14:29:00,46.0,24.8,30.12,South,180,3.0,11.0,43,0.00,,---,0.00,VWS V13.01,2013-02-15 20:29:00,
2013-02-15 14:30:00,46.0,24.8,30.12,South,180,2.0,11.0,43,0.00,,---,0.00,VWS V13.01,2013-02-15 20:30:00,
2013-02-15 14:31:00,46.0,24.8,30.12,South,180,1.0,6.0,43,0.00,,---,0.00,VWS V13.01,2013-02-15 20:31:00,
2013-02-15 14:32:00,46.0,24.8,30.12,South,180,5.0,6.0,43,0.00,,---,0.00,VWS V13.01,2013-02-15 20:32:00,
2013-02-15 14:33:00,45.9,24.7,30.12,South,179,4.0,6.0,43,0.00,,---,0.00,VWS V13.01,2013-02-15 20:33:00,
2013-02-15 14:34:00,45.9,24.7,30.12,South,179,5.0,6.0,43,0.00,,---,0.00,VWS V13.01,2013-02-15 20:34:00,
2013-02-15 14:35:00,45.9,24.7,30.12,South,180,3.0,6.0,43,0.00,,---,0.00,VWS V13.01,2013-02-15 20:35:00,
2013-02-15 14:36:00,45.9,24.7,30.12,South,180,2.0,6.0,43,0.00,,---,0.00,VWS V13.01,2013-02-15 20:36:00,
2013-02-15 14:37:00,45.9,24.7,30.12,South,180,1.0,6.0,43,0.00,,---,0.00,VWS V13.01,2013-02-15 20:37:00,
2013-02-15 14:38:00,45.9,24.7,30.12,South,180,0.0,6.0,43,0.00,,---,0.00,VWS V13.01,2013-02-15 20:38:00,
2013-02-15 14:39:00,45.8,24.6,30.12,South,180,5.0,7.0,43,0.00,,---,0.00,VWS V13.01,2013-02-15 20:39:00,
2013-02-15 14:40:00,45.8,25.1,30.12,South,180,3.0,7.0,44,0.00,,---,0.00,VWS V13.01,2013-02-15 20:40:00,
2013-02-15 14:41:00,45.8,24.6,30.12,South,179,4.0,7.0,43,0.00,,---,0.00,VWS V13.01,2013-02-15 20:41:00,
2013-02-15 14:42:00,45.7,24.5,30.12,South,178,6.0,8.0,43,0.00,,---,0.00,VWS V13.01,2013-02-15 20:42:00,
2013-02-15 14:43:00,45.7,23.9,30.12,South,174,9.0,10.0,42,0.00,,---,0.00,VWS V13.01,2013-02-15 20:43:00,
2013-02-15 14:44:00,45.6,23.9,30.12,South,174,3.0,10.0,42,0.00,,---,0.00,VWS V13.01,2013-02-15 20:44:00,
2013-02-15 14:45:00,45.6,24.4,30.12,South,174,4.0,10.0,43,0.00,,---,0.00,VWS V13.01,2013-02-15 20:45:00,
2013-02-15 14:46:00,45.6,24.4,30.12,South,174,6.0,10.0,43,0.00,,---,0.00,VWS V13.01,2013-02-15 20:46:00,
2013-02-15 14:47:00,45.5,24.9,30.12,South,173,4.0,10.0,44,0.00,,---,0.00,VWS V13.01,2013-02-15 20:47:00,
2013-02-15 14:48:00,45.4,24.8,30.12,South,173,6.0,10.0,44,0.00,,---,0.00,VWS V13.01,2013-02-15 20:48:00,
2013-02-15 14:49:00,45.3,24.7,30.12,SSE,168,7.0,10.0,44,0.00,,---,0.00,VWS V13.01,2013-02-15 20:49:00,
2013-02-15 14:50:00,45.2,24.6,30.12,SSE,168,4.0,10.0,44,0.00,,---,0.00,VWS V13.01,2013-02-15 20:50:00,
2013-02-15 14:51:00,45.1,25.0,30.13,SSE,168,1.0,10.0,45,0.00,,---,0.00,VWS V13.01,2013-02-15 20:51:00,
2013-02-15 14:52:00,45.0,25.0,30.12,SSE,168,6.0,10.0,45,0.00,,---,0.00,VWS V13.01,2013-02-15 20:52:00,
2013-02-15 14:53:00,45.0,24.4,30.13,SSE,168,6.0,10.0,44,0.00,,---,0.00,VWS V13.01,2013-02-15 20:53:00,
2013-02-15 14:54:00,45.0,24.4,30.13,SSE,168,5.0,10.0,44,0.00,,---,0.00,VWS V13.01,2013-02-15 20:54:00,
2013-02-15 14:55:00,44.9,24.3,30.13,SSE,168,5.0,10.0,44,0.00,,---,0.00,VWS V13.01,2013-02-15 20:55:00,
2013-02-15 14:56:00,44.9,24.9,30.13,SSE,168,4.0,10.0,45,0.00,,---,0.00,VWS V13.01,2013-02-15 20:56:00,
2013-02-15 14:57:00,44.8,24.8,30.13,SSE,168,5.0,10.0,45,0.00,,---,0.00,VWS V13.01,2013-02-15 20:57:00,
2013-02-15 14:58:00,44.7,24.7,30.13,SSE,168,5.0,10.0,45,0.00,,---,0.00,VWS V13.01,2013-02-15 20:58:00,
2013-02-15 14:59:00,44.7,24.7,30.13,SSE,168,2.0,10.0,45,0.00,,---,0.00,VWS V13.01,2013-02-15 20:59:00,
2013-02-15 15:00:00,44.6,24.6,30.13,SSE,168,6.0,10.0,45,0.00,,---,0.00,VWS V13.01,2013-02-15 21:00:00,
2013-02-15 15:01:00,44.6,24.6,30.13,SSE,168,5.0,9.0,45,0.00,,---,0.00,VWS V13.01,2013-02-15 21:01:00,
2013-02-15 15:02:00,44.6,24.6,30.13,SSE,168,5.0,9.0,45,0.00,,---,0.00,VWS V13.01,2013-02-15 21:02:00,
2013-02-15 15:03:00,44.5,25.0,30.13,SSE,168,5.0,9.0,46,0.00,,---,0.00,VWS V13.01,2013-02-15 21:03:00,
2013-02-15 15:04:00,44.5,24.5,30.12,SSE,168,4.0,9.0,45,0.00,,---,0.00,VWS V13.01,2013-02-15 21:04:00,
2013-02-15 15:05:00,44.4,24.9,30.12,SSE,168,3.0,9.0,46,0.00,,---,0.00,VWS V13.01,2013-02-15 21:05:00,
2013-02-15 15:06:00,44.3,24.8,30.12,SSE,168,4.0,9.0,46,0.00,,---,0.00,VWS V13.01,2013-02-15 21:06:00,
2013-02-15 15:07:00,44.3,24.3,30.13,SSE,168,4.0,9.0,45,0.00,,---,0.00,VWS V13.01,2013-02-15 21:07:00,
2013-02-15 15:08:00,44.2,24.8,30.12,SSE,168,3.0,9.0,46,0.00,,---,0.00,VWS V13.01,2013-02-15 21:08:00,
2013-02-15 15:09:00,44.2,24.2,30.12,SSE,168,4.0,9.0,45,0.00,,---,0.00,VWS V13.01,2013-02-15 21:09:00,
2013-02-15 15:10:00,44.2,24.8,30.13,SSE,168,6.0,9.0,46,0.00,,---,0.00,VWS V13.01,2013-02-15 21:10:00,
2013-02-15 15:11:00,44.1,24.7,30.12,SSE,168,6.0,9.0,46,0.00,,---,0.00,VWS V13.01,2013-02-15 21:11:00,
2013-02-15 15:12:00,44.1,24.1,30.12,SSE,168,4.0,9.0,45,0.00,,---,0.00,VWS V13.01,2013-02-15 21:12:00,
2013-02-15 15:13:00,44.0,24.0,30.13,SSE,168,5.0,9.0,45,0.00,,---,0.00,VWS V13.01,2013-02-15 21:13:00,
2013-02-15 15:14:00,44.0,24.6,30.13,SSE,168,3.0,9.0,46,0.00,,---,0.00,VWS V13.01,2013-02-15 21:14:00,
2013-02-15 15:15:00,43.9,24.5,30.13,SSE,168,3.0,9.0,46,0.00,,---,0.00,VWS V13.01,2013-02-15 21:15:00,
2013-02-15 15:16:00,43.9,25.5,30.13,SSE,168,5.0,9.0,48,0.00,,---,0.00,VWS V13.01,2013-02-15 21:16:00,
2013-02-15 15:17:00,43.8,24.4,30.12,SSE,168,4.0,9.0,46,0.00,,---,0.00,VWS V13.01,2013-02-15 21:17:00,
2013-02-15 15:18:00,43.7,24.3,30.12,SSE,168,5.0,9.0,46,0.00,,---,0.00,VWS V13.01,2013-02-15 21:18:00,
2013-02-15 15:19:00,43.7,24.3,30.12,SSE,168,4.0,9.0,46,0.00,,---,0.00,VWS V13.01,2013-02-15 21:19:00,
2013-02-15 15:20:00,43.7,24.3,30.13,SSE,168,4.0,9.0,46,0.00,,---,0.00,VWS V13.01,2013-02-15 21:20:00,
2013-02-15 15:21:00,43.6,24.2,30.12,SSE,168,3.0,9.0,46,0.00,,---,0.00,VWS V13.01,2013-02-15 21:21:00,
2013-02-15 15:22:00,43.6,24.7,30.12,SSE,168,4.0,9.0,47,0.00,,---,0.00,VWS V13.01,2013-02-15 21:22:00,
2013-02-15 15:23:00,43.5,24.6,30.12,SSE,168,5.0,9.0,47,0.00,,---,0.00,VWS V13.01,2013-02-15 21:23:00,
2013-02-15 15:24:00,43.5,24.6,30.12,SSE,168,3.0,9.0,47,0.00,,---,0.00,VWS V13.01,2013-02-15 21:24:00,
2013-02-15 15:25:00,43.4,24.5,30.12,SSE,168,3.0,9.0,47,0.00,,---,0.00,VWS V13.01,2013-02-15 21:25:00,
2013-02-15 15:26:00,43.4,24.5,30.12,SSE,168,2.0,9.0,47,0.00,,---,0.00,VWS V13.01,2013-02-15 21:26:00,
2013-02-15 15:27:00,43.3,24.4,30.12,SSE,168,3.0,9.0,47,0.00,,---,0.00,VWS V13.01,2013-02-15 21:27:00,
2013-02-15 15:28:00,43.3,24.4,30.12,SSE,168,3.0,9.0,47,0.00,,---,0.00,VWS V13.01,2013-02-15 21:28:00,
2013-02-15 15:29:00,43.2,24.4,30.12,SSE,168,3.0,9.0,47,0.00,,---,0.00,VWS V13.01,2013-02-15 21:29:00,
2013-02-15 15:30:00,43.2,24.4,30.12,SSE,168,2.0,9.0,47,0.00,,---,0.00,VWS V13.01,2013-02-15 21:30:00,
2013-02-15 15:31:00,43.1,24.3,30.12,SSE,168,4.0,5.0,47,0.00,,---,0.00,VWS V13.01,2013-02-15 21:31:00,
2013-02-15 15:32:00,43.1,24.8,30.12,SSE,168,1.0,5.0,48,0.00,,---,0.00,VWS V13.01,2013-02-15 21:32:00,
2013-02-15 15:33:00,43.0,24.7,30.12,SSE,168,1.0,5.0,48,0.00,,---,0.00,VWS V13.01,2013-02-15 21:33:00,
2013-02-15 15:34:00,42.9,24.6,30.12,SSE,168,2.0,5.0,48,0.00,,---,0.00,VWS V13.01,2013-02-15 21:34:00,
2013-02-15 15:35:00,42.9,24.6,30.12,SSE,168,2.0,5.0,48,0.00,,---,0.00,VWS V13.01,2013-02-15 21:35:00,
2013-02-15 15:36:00,42.8,24.5,30.12,SSE,168,3.0,5.0,48,0.00,,---,0.00,VWS V13.01,2013-02-15 21:36:00,
2013-02-15 15:37:00,42.7,24.4,30.12,SSE,168,3.0,5.0,48,0.00,,---,0.00,VWS V13.01,2013-02-15 21:37:00,
2013-02-15 15:38:00,42.7,24.4,30.12,SSE,168,3.0,5.0,48,0.00,,---,0.00,VWS V13.01,2013-02-15 21:38:00,
2013-02-15 15:39:00,42.6,24.8,30.12,SSE,168,2.0,5.0,49,0.00,,---,0.00,VWS V13.01,2013-02-15 21:39:00,
2013-02-15 15:40:00,42.6,24.3,30.12,SSE,168,5.0,5.0,48,0.00,,---,0.00,VWS V13.01,2013-02-15 21:40:00,
2013-02-15 15:41:00,42.5,24.2,30.12,SSE,168,2.0,5.0,48,0.00,,---,0.00,VWS V13.01,2013-02-15 21:41:00,
2013-02-15 15:42:00,42.5,24.2,30.12,SSE,168,4.0,5.0,48,0.00,,---,0.00,VWS V13.01,2013-02-15 21:42:00,
2013-02-15 15:43:00,42.4,24.6,30.12,SSE,168,2.0,5.0,49,0.00,,---,0.00,VWS V13.01,2013-02-15 21:43:00,
2013-02-15 15:44:00,42.4,24.6,30.12,SSE,168,3.0,5.0,49,0.00,,---,0.00,VWS V13.01,2013-02-15 21:44:00,
2013-02-15 15:45:00,42.3,25.0,30.12,SSE,168,1.0,5.0,50,0.00,,---,0.00,VWS V13.01,2013-02-15 21:45:00,
2013-02-15 15:46:00,42.2,24.9,30.12,SSE,168,2.0,5.0,50,0.00,,---,0.00,VWS V13.01,2013-02-15 21:46:00,
2013-02-15 15:47:00,42.1,24.8,30.12,SSE,168,0.0,5.0,50,0.00,,---,0.00,VWS V13.01,2013-02-15 21:47:00,
2013-02-15 15:48:00,42.0,24.7,30.12,SSE,168,0.0,5.0,50,0.00,,---,0.00,VWS V13.01,2013-02-15 21:48:00,
2013-02-15 15:49:00,41.9,25.1,30.12,SSE,168,0.0,5.0,51,0.00,,---,0.00,VWS V13.01,2013-02-15 21:49:00,
2013-02-15 15:50:00,41.8,25.0,30.12,SSE,168,0.0,5.0,51,0.00,,---,0.00,VWS V13.01,2013-02-15 21:50:00,
2013-02-15 15:51:00,41.8,25.0,30.12,SSE,168,3.0,5.0,51,0.00,,---,0.00,VWS V13.01,2013-02-15 21:51:00,
2013-02-15 15:52:00,41.6,24.8,30.12,SSE,168,3.0,5.0,51,0.00,,---,0.00,VWS V13.01,2013-02-15 21:52:00,
2013-02-15 15:53:00,41.6,24.4,30.12,SSE,168,2.0,5.0,50,0.00,,---,0.00,VWS V13.01,2013-02-15 21:53:00,
2013-02-15 15:54:00,41.5,24.7,30.12,SSE,168,2.0,5.0,51,0.00,,---,0.00,VWS V13.01,2013-02-15 21:54:00,
2013-02-15 15:55:00,41.5,24.7,30.12,SSE,168,1.0,5.0,51,0.00,,---,0.00,VWS V13.01,2013-02-15 21:55:00,
2013-02-15 15:56:00,41.5,24.7,30.12,SSE,168,2.0,5.0,51,0.00,,---,0.00,VWS V13.01,2013-02-15 21:56:00,
2013-02-15 15:57:00,41.4,24.6,30.12,SSE,168,4.0,5.0,51,0.00,,---,0.00,VWS V13.01,2013-02-15 21:57:00,
2013-02-15 15:58:00,41.4,24.2,30.12,SSE,168,2.0,5.0,50,0.00,,---,0.00,VWS V13.01,2013-02-15 21:58:00,
2013-02-15 15:59:00,41.4,24.6,30.12,SSE,168,1.0,5.0,51,0.00,,---,0.00,VWS V13.01,2013-02-15 21:59:00,
2013-02-15 16:00:00,41.4,24.6,30.12,SSE,168,1.0,5.0,51,0.00,,---,0.00,VWS V13.01,2013-02-15 22:00:00,
2013-02-15 16:01:00,41.3,24.5,30.12,SSE,168,2.0,2.0,51,0.00,,---,0.00,VWS V13.01,2013-02-15 22:01:00,
2013-02-15 16:02:00,41.3,24.5,30.12,SSE,168,3.0,4.0,51,0.00,,---,0.00,VWS V13.01,2013-02-15 22:02:00,
2013-02-15 16:03:00,41.2,24.9,30.12,SSE,168,2.0,4.0,52,0.00,,---,0.00,VWS V13.01,2013-02-15 22:03:00,
2013-02-15 16:04:00,41.2,24.9,30.12,SSE,168,2.0,4.0,52,0.00,,---,0.00,VWS V13.01,2013-02-15 22:04:00,
2013-02-15 16:05:00,41.1,24.8,30.12,SSE,168,2.0,4.0,52,0.00,,---,0.00,VWS V13.01,2013-02-15 22:05:00,
2013-02-15 16:06:00,41.1,24.8,30.12,SSE,168,1.0,4.0,52,0.00,,---,0.00,VWS V13.01,2013-02-15 22:06:00,
2013-02-15 16:07:00,41.1,24.8,30.12,SSE,168,2.0,4.0,52,0.00,,---,0.00,VWS V13.01,2013-02-15 22:07:00,
2013-02-15 16:08:00,41.0,24.7,30.12,SSE,168,2.0,4.0,52,0.00,,---,0.00,VWS V13.01,2013-02-15 22:08:00,
2013-02-15 16:09:00,41.0,26.1,30.12,SSE,168,3.0,5.0,55,0.00,,---,0.00,VWS V13.01,2013-02-15 22:09:00,
2013-02-15 16:10:00,41.0,24.7,30.12,SSE,168,2.0,5.0,52,0.00,,---,0.00,VWS V13.01,2013-02-15 22:10:00,
2013-02-15 16:11:00,40.9,24.6,30.12,SSE,168,3.0,5.0,52,0.00,,---,0.00,VWS V13.01,2013-02-15 22:11:00,
2013-02-15 16:12:00,40.9,24.6,30.12,SSE,168,4.0,5.0,52,0.00,,---,0.00,VWS V13.01,2013-02-15 22:12:00,
2013-02-15 16:13:00,40.9,25.1,30.12,SSE,168,1.0,5.0,53,0.00,,---,0.00,VWS V13.01,2013-02-15 22:13:00,
2013-02-15 16:14:00,40.8,25.0,30.11,SSE,168,2.0,5.0,53,0.00,,---,0.00,VWS V13.01,2013-02-15 22:14:00,
2013-02-15 16:15:00,40.8,25.0,30.11,SSE,168,3.0,5.0,53,0.00,,---,0.00,VWS V13.01,2013-02-15 22:15:00,
2013-02-15 16:16:00,40.7,24.5,30.12,SSE,168,2.0,5.0,52,0.00,,---,0.00,VWS V13.01,2013-02-15 22:16:00,
2013-02-15 16:17:00,40.8,24.5,30.12,SSE,168,1.0,5.0,52,0.00,,---,0.00,VWS V13.01,2013-02-15 22:17:00,
2013-02-15 16:30:00,40.9,25.1,30.12,SSE,158,2.0,5.0,53,0.00,,---,0.00,VWS V13.01,2013-02-15 22:30:00,
2013-02-15 17:00:00,40.9,23.7,30.12,SSE,158,3.0,10.0,50,0.00,,---,0.00,VWS V13.01,2013-02-15 23:00:00,
2013-02-15 17:30:00,41.1,23.9,30.11,SSE,158,3.0,9.0,50,0.00,,---,0.00,VWS V13.01,2013-02-15 23:30:00,
2013-02-15 18:00:00,41.1,23.4,30.12,SSE,158,4.0,8.0,49,0.00,,---,0.00,VWS V13.01,2013-02-16 00:00:00,
2013-02-15 18:30:00,40.7,23.5,30.13,SSE,158,3.0,6.0,50,0.00,,---,0.00,VWS V13.01,2013-02-16 00:30:00,
2013-02-15 19:00:00,40.4,23.7,30.12,SSE,158,3.0,7.0,51,0.00,,---,0.00,VWS V13.01,2013-02-16 01:00:00,
2013-02-15 19:30:00,40.4,23.7,30.12,SSE,158,4.0,11.0,51,0.00,,---,0.00,VWS V13.01,2013-02-16 01:30:00,
2013-02-15 20:00:00,40.7,24.0,30.11,South,180,5.0,11.0,51,0.00,,---,0.00,VWS V13.01,2013-02-16 02:00:00,
2013-02-15 20:30:00,40.6,24.4,30.10,South,180,6.0,11.0,52,0.00,,---,0.00,VWS V13.01,2013-02-16 02:30:00,
2013-02-15 21:00:00,40.6,24.4,30.09,SSW,202,7.0,12.0,52,0.00,,---,0.00,VWS V13.01,2013-02-16 03:00:00,
2013-02-15 21:30:00,40.9,25.1,30.08,SSW,202,7.0,15.0,53,0.00,,---,0.00,VWS V13.01,2013-02-16 03:30:00,
2013-02-15 22:00:00,41.2,25.8,30.08,SSW,202,8.0,16.0,54,0.00,,---,0.00,VWS V13.01,2013-02-16 04:00:00,
2013-02-15 22:30:00,41.2,25.8,30.08,SSW,202,8.0,16.0,54,0.00,,---,0.00,VWS V13.01,2013-02-16 04:30:00,
2013-02-15 23:00:00,40.8,26.3,30.08,SSW,202,8.0,15.0,56,0.00,,---,0.00,VWS V13.01,2013-02-16 05:00:00,
2013-02-15 23:30:00,40.5,26.5,30.07,SSW,202,7.0,13.0,57,0.00,,---,0.00,VWS V13.01,2013-02-16 05:30:00,